createdAt,value
2023-09-03T00:00:08.513Z,4.20
2023-09-03T00:02:35.095Z,4.28
2023-09-03T00:05:01.679Z,4.38
2023-09-03T00:07:28.320Z,4.60
2023-09-03T00:09:54.903Z,4.90
2023-09-03T00:12:21.489Z,4.80
2023-09-03T00:14:48.256Z,4.78
2023-09-03T00:17:15.860Z,4.63
2023-09-03T00:19:49.338Z,4.88
2023-09-03T00:22:15.956Z,4.75
2023-09-03T00:24:42.456Z,4.30
2023-09-03T00:27:09.157Z,4.53
2023-09-03T00:29:36.831Z,4.38
2023-09-03T00:32:04.448Z,4.75
2023-09-03T00:34:33.758Z,4.25
2023-09-03T00:37:00.681Z,4.57
2023-09-03T00:39:27.325Z,4.65
2023-09-03T00:41:54.347Z,5.20
2023-09-03T00:44:23.204Z,4.32
2023-09-03T00:46:50.054Z,5.15
2023-09-03T00:49:21.370Z,5.10
2023-09-03T00:51:49.656Z,5.03
2023-09-03T00:54:16.316Z,4.97
2023-09-03T00:56:45.776Z,5.00
2023-09-03T00:59:12.373Z,4.75
2023-09-03T01:01:39.924Z,4.72
2023-09-03T01:04:06.576Z,4.78
2023-09-03T01:06:46.526Z,4.82
2023-09-03T01:09:13.183Z,4.50
2023-09-03T01:11:44.858Z,4.47
2023-09-03T01:14:24.712Z,4.05
2023-09-03T01:17:19.960Z,4.68
2023-09-03T01:19:58.357Z,4.78
2023-09-03T01:22:55.289Z,5.43
2023-09-03T01:25:46.970Z,5.57
2023-09-03T01:28:31.586Z,5.47
2023-09-03T01:31:02.988Z,5.72
2023-09-03T01:33:31.887Z,5.80
2023-09-03T01:36:12.680Z,6.20
2023-09-03T01:38:40.696Z,6.15
2023-09-03T01:41:08.688Z,5.97
2023-09-03T01:43:38.829Z,6.55
2023-09-03T01:46:08.575Z,6.57
2023-09-03T01:48:50.174Z,6.25
2023-09-03T01:51:25.778Z,6.00
2023-09-03T01:54:03.902Z,6.72
2023-09-03T01:56:35.989Z,5.68
2023-09-03T01:59:12.891Z,5.57
2023-09-03T02:01:39.640Z,6.40
2023-09-03T02:04:06.308Z,6.40
2023-09-03T02:06:32.827Z,6.07
2023-09-03T02:09:02.275Z,6.32
2023-09-03T02:11:28.763Z,6.50
2023-09-03T02:13:55.437Z,6.80
2023-09-03T02:16:22.664Z,7.22
2023-09-03T02:18:49.179Z,6.65
2023-09-03T02:21:28.231Z,6.15
2023-09-03T02:23:54.815Z,6.05
2023-09-03T02:26:21.331Z,6.40
2023-09-03T02:28:47.885Z,6.78
2023-09-03T02:31:14.494Z,6.40
2023-09-03T02:33:41.030Z,6.68
2023-09-03T02:36:07.706Z,6.30
2023-09-03T02:38:36.834Z,6.45
2023-09-03T02:41:03.418Z,6.22
2023-09-03T02:43:30.354Z,5.80
2023-09-03T02:45:56.941Z,5.95
2023-09-03T02:48:23.653Z,5.68
2023-09-03T02:50:50.250Z,5.45
2023-09-03T02:53:16.741Z,5.55
2023-09-03T02:55:48.902Z,6.00
2023-09-03T02:58:15.445Z,6.05
2023-09-03T03:00:41.997Z,6.10
2023-09-03T03:03:08.655Z,5.82
2023-09-03T03:05:35.565Z,6.28
2023-09-03T03:08:04.197Z,6.22
2023-09-03T03:10:30.891Z,5.55
2023-09-03T03:12:57.385Z,5.78
2023-09-03T03:15:23.919Z,6.22
2023-09-03T03:17:50.513Z,6.60
2023-09-03T03:20:17.283Z,5.75
2023-09-03T03:22:44.739Z,7.03
2023-09-03T03:25:23.791Z,8.13
2023-09-03T03:27:50.285Z,6.70
2023-09-03T03:30:16.809Z,7.22
2023-09-03T03:32:43.390Z,6.57
2023-09-03T03:35:10.275Z,6.43
2023-09-03T03:37:36.895Z,6.50
2023-09-03T03:40:04.986Z,6.50
2023-09-03T03:42:32.207Z,6.35
2023-09-03T03:44:58.739Z,6.55
2023-09-03T03:47:25.267Z,5.97
2023-09-03T03:49:52.258Z,5.65
2023-09-03T03:52:18.970Z,6.22
2023-09-03T03:54:45.560Z,6.15
2023-09-03T03:57:12.080Z,5.78
2023-09-03T03:59:38.656Z,6.55
2023-09-03T04:02:05.275Z,5.80
2023-09-03T04:04:31.801Z,5.82
2023-09-03T04:06:58.419Z,5.28
2023-09-03T04:09:24.906Z,5.53
2023-09-03T04:11:51.438Z,6.30
2023-09-03T04:14:17.993Z,6.55
2023-09-03T04:16:44.579Z,6.10
2023-09-03T04:19:12.793Z,5.45
2023-09-03T04:21:39.413Z,5.65
2023-09-03T04:24:07.649Z,5.50
2023-09-03T04:26:34.251Z,6.57
2023-09-03T04:29:00.890Z,5.32
2023-09-03T04:31:27.464Z,6.72
2023-09-03T04:33:54.139Z,5.80
2023-09-03T04:36:20.693Z,5.55
2023-09-03T04:38:47.251Z,5.82
2023-09-03T04:41:13.788Z,5.95
2023-09-03T04:43:47.205Z,5.60
2023-09-03T04:46:13.753Z,5.88
2023-09-03T04:48:40.417Z,5.85
2023-09-03T04:51:08.622Z,5.13
2023-09-03T04:53:35.359Z,5.28
2023-09-03T04:56:03.562Z,7.07
2023-09-03T04:58:30.244Z,8.38
2023-09-03T05:00:56.747Z,6.55
2023-09-03T05:03:23.404Z,5.70
2023-09-03T05:05:49.914Z,5.15
2023-09-03T05:08:16.432Z,5.57
2023-09-03T05:10:43.060Z,4.93
2023-09-03T05:13:09.611Z,5.07
2023-09-03T05:15:37.891Z,5.60
2023-09-03T05:18:04.630Z,4.95
2023-09-03T05:20:31.268Z,4.90
2023-09-03T05:22:57.765Z,5.00
2023-09-03T05:25:24.267Z,4.82
2023-09-03T05:27:50.875Z,4.28
2023-09-03T05:30:17.454Z,4.53
2023-09-03T05:32:44.113Z,5.05
2023-09-03T05:35:11.082Z,4.88
2023-09-03T05:37:37.804Z,5.18
2023-09-03T05:40:05.961Z,4.50
2023-09-03T05:42:32.691Z,5.03
2023-09-03T05:45:02.176Z,4.85
2023-09-03T05:47:28.738Z,5.88
2023-09-03T05:49:56.474Z,5.03
2023-09-03T05:52:23.017Z,4.65
2023-09-03T05:54:49.558Z,5.18
2023-09-03T05:57:16.169Z,5.85
2023-09-03T05:59:42.693Z,5.65
2023-09-03T06:02:09.334Z,6.25
2023-09-03T06:04:35.901Z,5.70
2023-09-03T06:07:02.432Z,5.68
2023-09-03T06:09:28.992Z,6.05
2023-09-03T06:11:55.566Z,5.72
2023-09-03T06:14:22.118Z,5.10
2023-09-03T06:16:48.664Z,6.40
2023-09-03T06:19:15.626Z,6.20
2023-09-03T06:21:42.225Z,6.35
2023-09-03T06:24:09.078Z,7.25
2023-09-03T06:26:35.630Z,6.88
2023-09-03T06:29:02.149Z,6.65
2023-09-03T06:31:28.855Z,6.95
2023-09-03T06:33:55.658Z,6.65
2023-09-03T06:36:22.292Z,6.63
2023-09-03T06:38:48.833Z,7.13
2023-09-03T06:41:15.780Z,7.05
2023-09-03T06:43:42.389Z,7.32
2023-09-03T06:46:09.615Z,7.90
2023-09-03T06:48:37.428Z,7.05
2023-09-03T06:51:04.836Z,7.50
2023-09-03T06:53:31.450Z,7.40
2023-09-03T06:55:58.410Z,7.82
2023-09-03T06:58:25.043Z,7.75
2023-09-03T07:00:53.830Z,7.25
2023-09-03T07:03:22.041Z,7.82
2023-09-03T07:05:48.699Z,7.20
2023-09-03T07:08:15.360Z,7.22
2023-09-03T07:10:41.987Z,7.60
2023-09-03T07:13:09.979Z,8.45
2023-09-03T07:15:37.498Z,7.60
2023-09-03T07:18:05.668Z,7.38
2023-09-03T07:20:35.390Z,7.28
2023-09-03T07:23:01.983Z,8.30
2023-09-03T07:25:32.713Z,6.75
2023-09-03T07:27:59.301Z,7.47
2023-09-03T07:30:25.993Z,6.47
2023-09-03T07:32:52.614Z,7.25
2023-09-03T07:35:19.492Z,6.97
2023-09-03T07:37:46.182Z,7.25
2023-09-03T07:40:13.041Z,6.78
2023-09-03T07:42:39.888Z,7.50
2023-09-03T07:45:07.184Z,6.65
2023-09-03T07:47:33.895Z,7.32
2023-09-03T07:50:02.336Z,7.07
2023-09-03T07:52:29.110Z,6.88
2023-09-03T07:54:55.668Z,7.13
2023-09-03T07:57:22.419Z,7.38
2023-09-03T07:59:51.607Z,7.40
2023-09-03T08:02:18.169Z,7.35
2023-09-03T08:04:48.505Z,6.53
2023-09-03T08:07:15.017Z,7.13
2023-09-03T08:09:42.120Z,8.18
2023-09-03T08:12:08.658Z,7.80
2023-09-03T08:14:35.248Z,7.30
2023-09-03T08:17:01.746Z,7.82
2023-09-03T08:19:28.473Z,7.78
2023-09-03T08:21:55.091Z,7.32
2023-09-03T08:24:21.734Z,7.80
2023-09-03T08:26:51.191Z,7.45
2023-09-03T08:29:17.775Z,7.53
2023-09-03T08:31:44.355Z,8.02
2023-09-03T08:34:11.441Z,7.28
2023-09-03T08:36:38.039Z,6.80
2023-09-03T08:39:07.206Z,7.75
2023-09-03T08:41:42.448Z,7.03
2023-09-03T08:44:35.988Z,6.03
2023-09-03T08:47:17.525Z,5.57
2023-09-03T08:49:59.870Z,4.28
2023-09-03T08:52:29.220Z,4.10
2023-09-03T08:54:56.606Z,3.70
2023-09-03T09:00:24.831Z,3.60
2023-09-03T09:02:53.499Z,3.40
2023-09-03T09:05:31.271Z,2.63
2023-09-03T09:07:59.665Z,2.90
2023-09-03T09:10:33.296Z,3.10
2023-09-03T09:13:07.912Z,2.97
2023-09-03T09:15:40.916Z,2.90
2023-09-03T09:18:11.864Z,3.17
2023-09-03T09:20:42.594Z,2.47
2023-09-03T09:23:09.877Z,3.17
2023-09-03T09:25:37.519Z,2.78
2023-09-03T09:28:14.329Z,3.10
2023-09-03T09:30:58.202Z,2.90
2023-09-03T09:33:26.246Z,3.10
2023-09-03T09:35:54.844Z,3.17
2023-09-03T09:38:36.090Z,2.38
2023-09-03T09:41:22.332Z,2.25
2023-09-03T09:43:49.084Z,2.38
2023-09-03T09:46:29.529Z,2.60
2023-09-03T09:48:58.175Z,2.33
2023-09-03T09:51:26.301Z,2.00
2023-09-03T09:54:04.312Z,1.83
2023-09-03T09:56:37.414Z,1.77
2023-09-03T09:59:05.537Z,2.25
2023-09-03T10:01:47.540Z,1.83
2023-09-03T10:04:14.468Z,1.80
2023-09-03T10:06:42.076Z,1.45
2023-09-03T10:09:09.770Z,2.00
2023-09-03T10:11:36.543Z,1.85
2023-09-03T10:14:03.162Z,2.08
2023-09-03T10:16:33.448Z,2.15
2023-09-03T10:19:19.567Z,3.00
2023-09-03T10:22:28.504Z,4.22
2023-09-03T10:25:25.150Z,2.67
2023-09-03T10:27:58.422Z,2.85
2023-09-03T10:30:31.325Z,2.67
2023-09-03T10:32:59.163Z,1.75
2023-09-03T10:35:25.956Z,1.80
2023-09-03T10:37:52.862Z,1.55
2023-09-03T10:40:26.055Z,1.60
2023-09-03T10:42:54.702Z,1.60
2023-09-03T10:45:28.052Z,1.17
2023-09-03T10:48:05.152Z,1.40
2023-09-03T10:51:02.054Z,1.85
2023-09-03T10:53:40.645Z,1.98
2023-09-03T10:56:51.085Z,2.30
2023-09-03T10:59:17.643Z,2.38
2023-09-03T11:01:46.893Z,2.78
2023-09-03T11:04:16.306Z,2.33
2023-09-03T11:07:15.169Z,2.90
2023-09-03T11:09:41.934Z,2.03
2023-09-03T11:12:08.680Z,2.92
2023-09-03T11:14:36.079Z,2.85
2023-09-03T11:17:09.777Z,2.17
2023-09-03T11:19:42.284Z,2.67
2023-09-03T11:22:09.405Z,2.58
2023-09-03T11:24:59.251Z,2.42
2023-09-03T11:27:25.894Z,2.10
2023-09-03T11:30:04.341Z,1.75
2023-09-03T11:32:38.517Z,1.70
2023-09-03T11:35:08.358Z,1.40
2023-09-03T11:37:36.761Z,1.90
2023-09-03T11:40:05.425Z,2.50
2023-09-03T11:42:33.146Z,2.50
2023-09-03T11:44:59.677Z,1.83
2023-09-03T11:47:26.295Z,1.60
2023-09-03T11:49:53.030Z,1.20
2023-09-03T11:52:19.727Z,2.38
2023-09-03T11:54:46.613Z,2.35
2023-09-03T11:57:16.475Z,3.78
2023-09-03T11:59:43.687Z,2.40
2023-09-03T12:02:30.408Z,3.53
2023-09-03T12:04:57.476Z,2.85
2023-09-03T12:07:24.083Z,2.88
